Time;durP1;ratioP1;P1;durP2;ratioP2;P2;SDS_P1;SDS_P2;PMS_P1;PMS_P2;Temp;Humidity;BMP_temperature;BMP_pressure;BME280_temperature;BME280_humidity;BME280_pressure;Samples;Min_cycle;Max_cycle;Signal;HPM_P1;HPM_P2
2022/06/30 00:02:04;;;;;;;;;;;22.30;88.30;;;;;;5060824;28;19942;-96
2022/06/30 00:04:33;;;;;;;;;;;22.30;88.00;;;;;;5059284;28;19932;-96
2022/06/30 00:07:07;;;;;;;;;;;22.30;87.50;;;;;;5078173;28;19996;-96
2022/06/30 00:10:01;;;;;;;;;;;22.30;87.80;;;;;;5060365;28;19961;-96
2022/06/30 00:12:34;;;;;;;;;;;22.30;87.70;;;;;;5057338;28;20009;-96
2022/06/30 01:00:15;;;;;;;;;;;21.70;87.10;;;;;;5178859;22;19960;-96
2022/06/30 01:02:42;;;;;;;;;;;21.70;86.60;;;;;;5021194;28;19953;-96
2022/06/30 01:05:08;;;;;;;;;;;21.60;86.70;;;;;;5020255;28;19977;-96
2022/06/30 01:07:37;;;;;;;;;;;21.60;87.10;;;;;;5020618;28;19956;-96
2022/06/30 01:12:52;;;;;;;;;;;21.50;88.30;;;;;;5040558;28;19997;-96
2022/06/30 01:15:23;;;;;;;;;;;21.50;88.80;;;;;;5031629;28;19947;-96
2022/06/30 01:17:52;;;;;;;;;;;21.30;89.10;;;;;;5024034;28;19985;-96
2022/06/30 01:20:31;;;;;;;;;;;21.30;89.60;;;;;;5024201;28;19943;-96
2022/06/30 01:59:16;;;;;;;;;;;21.50;88.10;;;;;;5101701;22;19976;-96
2022/06/30 02:01:43;;;;;;;;;;;21.40;88.00;;;;;;5022647;28;19947;-96
2022/06/30 02:07:09;;;;;;;;;;;21.30;88.00;;;;;;5039912;28;19962;-96
2022/06/30 02:09:51;;;;;;;;;;;21.30;88.10;;;;;;5023023;28;19942;-96
2022/06/30 02:15:07;;;;;;;;;;;21.20;89.20;;;;;;5039293;28;19936;-96
2022/06/30 02:17:41;;;;;;;;;;;21.20;89.80;;;;;;5017736;28;19946;-96
2022/06/30 02:20:11;;;;;;;;;;;21.20;90.10;;;;;;5034744;28;20020;-96
2022/06/30 02:22:40;;;;;;;;;;;21.20;89.70;;;;;;5034770;28;19968;-96
2022/06/30 02:25:07;;;;;;;;;;;21.20;89.70;;;;;;5016278;28;19951;-96
2022/06/30 02:27:33;;;;;;;;;;;21.20;89.60;;;;;;5016684;28;19953;-96
2022/06/30 02:29:59;;;;;;;;;;;21.20;89.50;;;;;;5034143;28;19943;-95
2022/06/30 02:32:29;;;;;;;;;;;21.20;89.60;;;;;;5019195;28;19941;-96
2022/06/30 02:35:00;;;;;;;;;;;21.20;90.00;;;;;;5036720;28;19978;-96
2022/06/30 02:37:31;;;;;;;;;;;21.30;89.60;;;;;;5004401;28;19972;-96
2022/06/30 02:39:59;;;;;;;;;;;21.30;89.40;;;;;;5021595;28;19995;-96
2022/06/30 02:42:35;;;;;;;;;;;21.30;89.10;;;;;;5038285;28;19946;-96
2022/06/30 02:45:02;;;;;;;;;;;21.20;88.70;;;;;;5020847;28;19944;-96
2022/06/30 02:47:30;;;;;;;;;;;21.20;88.60;;;;;;5005090;28;20044;-96
2022/06/30 02:49:59;;;;;;;;;;;21.10;88.30;;;;;;5021100;28;19962;-96
2022/06/30 02:52:30;;;;;;;;;;;21.00;87.90;;;;;;5004889;28;19952;-96
2022/06/30 02:55:01;;;;;;;;;;;21.00;87.60;;;;;;5021115;28;19944;-96
2022/06/30 02:57:28;;;;;;;;;;;20.90;87.60;;;;;;5020595;28;20472;-96
2022/06/30 02:59:55;;;;;;;;;;;20.80;87.70;;;;;;5017129;28;20498;-96
2022/06/30 03:02:21;;;;;;;;;;;20.80;88.00;;;;;;5011615;28;19976;-96
2022/06/30 03:04:57;;;;;;;;;;;20.70;88.20;;;;;;5017950;28;19998;-96
2022/06/30 03:07:29;;;;;;;;;;;20.80;88.50;;;;;;5014579;28;19950;-95
2022/06/30 03:10:00;;;;;;;;;;;20.80;88.50;;;;;;5017554;28;20412;-96
2022/06/30 03:12:31;;;;;;;;;;;20.80;88.30;;;;;;5017429;28;19941;-96
2022/06/30 03:14:59;;;;;;;;;;;20.90;88.20;;;;;;5015547;28;19963;-96
2022/06/30 03:17:27;;;;;;;;;;;20.90;88.40;;;;;;5016572;28;19969;-96
2022/06/30 03:19:56;;;;;;;;;;;20.90;89.10;;;;;;5016202;28;20389;-96
2022/06/30 03:22:25;;;;;;;;;;;20.90;89.10;;;;;;5013496;28;19931;-96
2022/06/30 03:24:57;;;;;;;;;;;20.90;88.90;;;;;;4999760;28;19949;-96
2022/06/30 03:27:26;;;;;;;;;;;21.00;89.10;;;;;;5016617;28;19952;-96
2022/06/30 03:29:57;;;;;;;;;;;21.00;89.20;;;;;;5016733;28;19948;-96
2022/06/30 03:32:26;;;;;;;;;;;21.00;89.30;;;;;;5016305;28;19948;-96
2022/06/30 03:34:54;;;;;;;;;;;21.00;88.90;;;;;;5016493;28;19926;-96
2022/06/30 03:37:21;;;;;;;;;;;20.90;88.50;;;;;;5016485;28;19972;-96
2022/06/30 03:39:48;;;;;;;;;;;20.80;88.10;;;;;;5016276;28;19947;-96
2022/06/30 03:42:18;;;;;;;;;;;20.80;87.90;;;;;;5015784;28;19927;-96
2022/06/30 03:44:45;;;;;;;;;;;20.80;88.10;;;;;;5015016;28;19943;-96
2022/06/30 03:47:11;;;;;;;;;;;20.80;88.10;;;;;;5010357;28;20026;-96
2022/06/30 03:49:37;;;;;;;;;;;20.80;88.00;;;;;;5008742;28;20287;-96
2022/06/30 03:52:03;;;;;;;;;;;20.80;88.20;;;;;;5009432;28;19941;-96
2022/06/30 03:54:29;;;;;;;;;;;20.80;88.80;;;;;;5010226;28;20240;-96
2022/06/30 03:56:55;;;;;;;;;;;20.70;88.70;;;;;;5012833;28;19978;-96
2022/06/30 03:59:21;;;;;;;;;;;20.70;88.60;;;;;;5017662;28;19976;-96
2022/06/30 04:01:48;;;;;;;;;;;20.70;89.20;;;;;;5018560;28;19939;-96
2022/06/30 04:04:21;;;;;;;;;;;20.70;89.10;;;;;;5018534;28;19938;-96
2022/06/30 04:06:48;;;;;;;;;;;20.80;89.10;;;;;;5019614;28;19942;-96
2022/06/30 04:09:14;;;;;;;;;;;20.80;89.50;;;;;;5019239;28;19940;-96
2022/06/30 04:11:41;;;;;;;;;;;20.80;89.60;;;;;;5018126;28;20381;-96
2022/06/30 04:14:08;;;;;;;;;;;20.90;89.40;;;;;;5018425;28;19946;-96
2022/06/30 04:16:34;;;;;;;;;;;21.00;89.50;;;;;;5019040;28;19970;-96
2022/06/30 04:19:09;;;;;;;;;;;21.00;89.30;;;;;;5020370;28;19953;-96
2022/06/30 04:21:36;;;;;;;;;;;21.00;89.30;;;;;;5018853;28;19945;-96
2022/06/30 04:24:03;;;;;;;;;;;21.00;89.30;;;;;;5018612;28;19980;-96
2022/06/30 04:26:30;;;;;;;;;;;21.00;89.40;;;;;;5018898;28;19991;-96
2022/06/30 04:29:02;;;;;;;;;;;21.20;89.20;;;;;;5019049;28;19941;-96
2022/06/30 04:34:23;;;;;;;;;;;21.30;89.10;;;;;;5018598;28;20025;-96
2022/06/30 04:36:48;;;;;;;;;;;21.40;89.50;;;;;;5013618;28;19966;-96
2022/06/30 04:39:14;;;;;;;;;;;21.50;89.70;;;;;;5008981;28;19945;-96
2022/06/30 04:41:40;;;;;;;;;;;21.60;89.60;;;;;;5011468;28;19944;-96
2022/06/30 04:44:05;;;;;;;;;;;21.60;89.60;;;;;;5009944;28;19963;-96
2022/06/30 04:46:31;;;;;;;;;;;21.80;89.50;;;;;;5010779;28;19949;-96
2022/06/30 04:48:57;;;;;;;;;;;21.90;88.90;;;;;;5014054;28;19950;-96
2022/06/30 04:51:23;;;;;;;;;;;22.00;88.30;;;;;;5016425;28;19963;-96
2022/06/30 04:53:51;;;;;;;;;;;22.20;87.70;;;;;;5018687;28;19947;-96
2022/06/30 04:56:20;;;;;;;;;;;22.20;87.50;;;;;;5018599;28;19987;-96
2022/06/30 04:58:47;;;;;;;;;;;22.30;87.00;;;;;;5018377;28;19974;-96
2022/06/30 05:01:16;;;;;;;;;;;22.30;86.70;;;;;;5018293;28;19949;-96
2022/06/30 05:03:46;;;;;;;;;;;22.30;86.40;;;;;;5018881;28;19946;-96
2022/06/30 05:06:15;;;;;;;;;;;22.30;86.10;;;;;;5018990;28;19941;-96
2022/06/30 05:08:42;;;;;;;;;;;22.40;85.90;;;;;;5017937;28;19962;-96
2022/06/30 05:11:14;;;;;;;;;;;22.50;85.50;;;;;;5019089;28;19951;-96
2022/06/30 05:13:42;;;;;;;;;;;22.50;85.30;;;;;;5019349;28;20413;-96
2022/06/30 05:16:09;;;;;;;;;;;22.50;85.00;;;;;;5003356;28;19954;-96
2022/06/30 05:18:46;;;;;;;;;;;22.70;84.80;;;;;;5017956;28;19948;-96
2022/06/30 05:21:17;;;;;;;;;;;22.80;84.70;;;;;;5015900;28;19975;-96
2022/06/30 05:26:28;;;;;;;;;;;22.80;84.30;;;;;;5013713;28;19945;-96
2022/06/30 05:26:31;;;;;;;;;;;22.80;84.20;;;;;;5015160;28;20040;-96
2022/06/30 05:28:57;;;;;;;;;;;22.90;83.80;;;;;;5013352;28;20238;-96
2022/06/30 05:31:23;;;;;;;;;;;23.00;83.40;;;;;;5011272;28;19989;-96
2022/06/30 05:33:49;;;;;;;;;;;23.10;83.00;;;;;;5009190;28;19943;-96
2022/06/30 05:36:18;;;;;;;;;;;23.20;82.10;;;;;;5016539;28;19952;-96
2022/06/30 05:38:45;;;;;;;;;;;23.30;81.70;;;;;;5015223;28;19982;-96
2022/06/30 05:41:12;;;;;;;;;;;23.40;81.30;;;;;;5015578;28;19944;-96
2022/06/30 05:43:38;;;;;;;;;;;23.50;80.80;;;;;;5014174;28;19949;-96
2022/06/30 05:46:04;;;;;;;;;;;23.70;80.50;;;;;;5014762;28;19951;-96
2022/06/30 05:48:42;;;;;;;;;;;23.70;79.80;;;;;;5017536;28;19947;-96
2022/06/30 05:51:12;;;;;;;;;;;23.80;79.60;;;;;;5019076;28;19955;-96
2022/06/30 05:53:49;;;;;;;;;;;23.80;79.40;;;;;;5010495;28;19951;-96
2022/06/30 05:56:19;;;;;;;;;;;23.90;79.10;;;;;;5002791;28;19966;-96
2022/06/30 05:58:51;;;;;;;;;;;24.00;78.90;;;;;;5022211;28;19973;-96
2022/06/30 06:01:26;;;;;;;;;;;24.00;78.80;;;;;;5022131;28;19947;-96
2022/06/30 06:03:55;;;;;;;;;;;24.10;78.70;;;;;;5020255;28;19950;-96
2022/06/30 06:06:22;;;;;;;;;;;24.10;78.50;;;;;;5021535;28;19947;-96
2022/06/30 06:08:51;;;;;;;;;;;24.20;77.80;;;;;;5018504;28;19967;-96
2022/06/30 06:11:26;;;;;;;;;;;24.30;77.30;;;;;;5038399;28;19954;-96
2022/06/30 06:13:54;;;;;;;;;;;24.30;76.80;;;;;;5021844;28;19934;-96
2022/06/30 06:16:24;;;;;;;;;;;24.40;76.80;;;;;;5038869;28;19963;-96
2022/06/30 06:19:16;;;;;;;;;;;24.50;77.80;;;;;;5021992;28;20011;-96
2022/06/30 06:21:48;;;;;;;;;;;24.50;77.20;;;;;;5020618;28;19962;-96
2022/06/30 06:24:15;;;;;;;;;;;24.60;76.90;;;;;;5018916;28;19974;-96
2022/06/30 06:26:42;;;;;;;;;;;24.60;76.30;;;;;;5018650;28;19977;-96
2022/06/30 06:29:11;;;;;;;;;;;24.70;76.10;;;;;;5017973;28;19951;-95
2022/06/30 06:31:37;;;;;;;;;;;24.80;75.30;;;;;;5015231;28;19945;-94
2022/06/30 06:34:03;;;;;;;;;;;24.90;75.10;;;;;;5014370;28;20460;-95
2022/06/30 06:36:29;;;;;;;;;;;25.10;75.10;;;;;;5014801;28;19957;-94
2022/06/30 06:38:55;;;;;;;;;;;25.20;74.40;;;;;;5014828;28;19989;-94
2022/06/30 06:41:21;;;;;;;;;;;25.30;73.80;;;;;;5015422;28;20031;-95
2022/06/30 06:43:50;;;;;;;;;;;25.30;73.80;;;;;;4997242;28;20412;-96
2022/06/30 06:46:16;;;;;;;;;;;25.40;74.00;;;;;;5014718;28;19949;-96
2022/06/30 06:48:42;;;;;;;;;;;25.50;74.60;;;;;;5014692;28;19992;-95
2022/06/30 06:51:08;;;;;;;;;;;25.50;74.40;;;;;;5014688;28;20314;-96
2022/06/30 06:53:34;;;;;;;;;;;25.60;73.30;;;;;;5014666;28;19950;-94
2022/06/30 06:55:59;;;;;;;;;;;25.60;73.10;;;;;;4991514;28;19972;-96
2022/06/30 06:58:25;;;;;;;;;;;25.70;73.40;;;;;;4996901;28;19942;-96
2022/06/30 07:00:52;;;;;;;;;;;25.70;74.00;;;;;;5015355;28;19942;-95
2022/06/30 07:03:18;;;;;;;;;;;25.80;74.00;;;;;;5014404;28;19986;-95
2022/06/30 07:05:44;;;;;;;;;;;25.90;73.40;;;;;;4996158;28;19993;-96
2022/06/30 07:08:09;;;;;;;;;;;25.90;73.10;;;;;;5014196;28;20358;-95
2022/06/30 07:10:35;;;;;;;;;;;26.00;73.30;;;;;;5014258;28;20039;-95
2022/06/30 07:13:01;;;;;;;;;;;26.10;72.60;;;;;;4996884;28;20392;-96
2022/06/30 07:15:26;;;;;;;;;;;26.10;72.40;;;;;;4996627;28;19946;-96
2022/06/30 07:17:52;;;;;;;;;;;26.20;71.40;;;;;;5015643;28;19938;-94
2022/06/30 07:20:17;;;;;;;;;;;26.20;71.60;;;;;;5015144;28;20316;-94
2022/06/30 07:22:43;;;;;;;;;;;26.30;71.00;;;;;;5013769;28;19935;-95
2022/06/30 07:25:08;;;;;;;;;;;26.40;71.40;;;;;;5014652;28;20419;-96
2022/06/30 07:27:34;;;;;;;;;;;26.50;70.60;;;;;;5014252;28;20052;-95
2022/06/30 07:30:00;;;;;;;;;;;26.50;69.90;;;;;;5014268;28;20014;-95
2022/06/30 07:32:25;;;;;;;;;;;26.60;68.90;;;;;;4996147;28;19945;-94
2022/06/30 07:34:51;;;;;;;;;;;26.60;69.50;;;;;;5014335;28;20404;-95
2022/06/30 07:37:16;;;;;;;;;;;26.70;69.30;;;;;;5014634;28;19982;-95
2022/06/30 07:39:42;;;;;;;;;;;26.70;68.90;;;;;;5014053;28;19971;-96
2022/06/30 07:42:07;;;;;;;;;;;26.70;69.00;;;;;;5014108;28;20002;-96
2022/06/30 07:44:33;;;;;;;;;;;26.70;69.00;;;;;;5014303;28;19946;-95
2022/06/30 07:46:59;;;;;;;;;;;26.80;68.40;;;;;;5014040;28;19969;-95
2022/06/30 07:49:24;;;;;;;;;;;26.80;67.80;;;;;;5014519;28;20393;-95
2022/06/30 07:51:50;;;;;;;;;;;26.80;67.10;;;;;;5013904;28;20034;-95
2022/06/30 07:54:16;;;;;;;;;;;26.90;67.50;;;;;;5014063;28;20297;-94
2022/06/30 07:56:42;;;;;;;;;;;26.90;66.90;;;;;;5008414;28;19963;-95
2022/06/30 07:59:08;;;;;;;;;;;26.90;66.40;;;;;;5013817;28;19988;-96
2022/06/30 08:01:33;;;;;;;;;;;27.00;67.10;;;;;;5014120;28;19943;-96
2022/06/30 08:03:59;;;;;;;;;;;27.00;67.00;;;;;;5013791;28;19946;-95
2022/06/30 08:06:25;;;;;;;;;;;27.10;66.80;;;;;;5013256;28;20019;-95
2022/06/30 08:08:50;;;;;;;;;;;27.10;66.50;;;;;;5014057;28;19963;-96
2022/06/30 08:11:17;;;;;;;;;;;27.20;67.30;;;;;;5013892;28;19974;-96
2022/06/30 08:13:42;;;;;;;;;;;27.30;66.00;;;;;;5013867;28;19950;-96
2022/06/30 08:16:09;;;;;;;;;;;27.40;67.20;;;;;;5013745;28;19962;-96
2022/06/30 08:18:35;;;;;;;;;;;27.50;65.90;;;;;;4995873;28;20313;-96
2022/06/30 08:21:00;;;;;;;;;;;27.50;64.30;;;;;;5013098;28;19941;-96
2022/06/30 08:23:26;;;;;;;;;;;27.50;65.70;;;;;;5013673;28;20413;-95
2022/06/30 08:25:52;;;;;;;;;;;27.60;64.70;;;;;;5013529;28;19982;-96
2022/06/30 08:28:17;;;;;;;;;;;27.70;64.10;;;;;;5012569;28;20411;-96
2022/06/30 08:30:44;;;;;;;;;;;27.70;63.40;;;;;;4995031;28;19988;-95
2022/06/30 08:33:10;;;;;;;;;;;27.80;64.30;;;;;;5013392;28;19944;-95
2022/06/30 08:35:36;;;;;;;;;;;27.80;63.30;;;;;;5013341;28;19950;-96
2022/06/30 08:38:01;;;;;;;;;;;27.90;64.10;;;;;;4995792;28;20355;-95
2022/06/30 08:43:11;;;;;;;;;;;27.90;62.90;;;;;;5014101;28;20030;-96
2022/06/30 08:45:37;;;;;;;;;;;27.90;63.20;;;;;;5017062;28;19979;-95
2022/06/30 08:48:03;;;;;;;;;;;27.90;64.30;;;;;;4998819;28;19994;-94
2022/06/30 08:50:29;;;;;;;;;;;28.10;65.60;;;;;;4999119;28;19944;-96
2022/06/30 08:52:56;;;;;;;;;;;28.20;64.40;;;;;;4999185;28;19979;-96
2022/06/30 08:55:29;;;;;;;;;;;28.20;64.40;;;;;;5016423;28;19949;-95
2022/06/30 08:57:58;;;;;;;;;;;28.30;63.20;;;;;;4999081;28;19953;-95
2022/06/30 09:00:24;;;;;;;;;;;28.30;61.50;;;;;;5016317;28;19972;-95
2022/06/30 09:02:49;;;;;;;;;;;28.30;61.90;;;;;;4998697;28;20068;-95
2022/06/30 09:05:15;;;;;;;;;;;28.30;62.50;;;;;;4998720;28;19945;-95
2022/06/30 09:07:41;;;;;;;;;;;28.30;63.10;;;;;;4999231;28;19952;-94
2022/06/30 09:10:07;;;;;;;;;;;28.20;61.50;;;;;;5016428;28;20025;-95
2022/06/30 09:12:33;;;;;;;;;;;28.20;62.30;;;;;;5016215;28;19943;-94
2022/06/30 09:15:00;;;;;;;;;;;28.20;60.00;;;;;;5016360;28;20388;-95
2022/06/30 09:17:27;;;;;;;;;;;28.20;61.40;;;;;;5016145;28;19966;-95
2022/06/30 09:19:52;;;;;;;;;;;28.20;61.50;;;;;;5016302;28;20034;-94
2022/06/30 09:22:18;;;;;;;;;;;28.30;59.80;;;;;;4998492;28;20036;-95
2022/06/30 09:24:44;;;;;;;;;;;28.30;60.30;;;;;;5016468;28;19940;-95
2022/06/30 09:27:12;;;;;;;;;;;28.30;60.00;;;;;;5016069;28;19972;-95
2022/06/30 09:29:45;;;;;;;;;;;28.40;61.20;;;;;;5016419;28;19945;-95
2022/06/30 09:32:11;;;;;;;;;;;28.50;59.00;;;;;;5016050;28;19947;-95
2022/06/30 09:34:38;;;;;;;;;;;28.60;61.30;;;;;;5016077;28;20311;-95
2022/06/30 09:37:13;;;;;;;;;;;28.80;60.20;;;;;;5016186;28;19983;-95
2022/06/30 09:39:41;;;;;;;;;;;28.90;61.80;;;;;;5016064;28;20006;-95
2022/06/30 09:42:07;;;;;;;;;;;28.90;59.10;;;;;;5015944;28;19948;-95
2022/06/30 09:44:34;;;;;;;;;;;29.00;60.70;;;;;;5015780;28;19938;-95
2022/06/30 09:47:04;;;;;;;;;;;29.00;57.80;;;;;;5015778;28;19985;-94
2022/06/30 09:49:31;;;;;;;;;;;29.00;59.00;;;;;;5015633;28;19939;-95
2022/06/30 09:51:56;;;;;;;;;;;29.00;58.30;;;;;;5015672;28;20399;-95
2022/06/30 09:54:22;;;;;;;;;;;29.00;58.80;;;;;;5014785;28;19950;-95
2022/06/30 09:59:24;;;;;;;;;;;29.10;58.80;;;;;;4983952;23;20354;-96
2022/06/30 10:01:51;;;;;;;;;;;29.20;56.90;;;;;;4976584;28;20067;-95
2022/06/30 10:04:17;;;;;;;;;;;29.30;57.90;;;;;;4976561;28;20425;-95
2022/06/30 10:06:42;;;;;;;;;;;29.50;58.30;;;;;;4959081;28;20040;-96
2022/06/30 10:09:09;;;;;;;;;;;29.60;58.60;;;;;;4976452;28;19944;-96
2022/06/30 10:11:35;;;;;;;;;;;29.70;57.60;;;;;;4976227;28;20421;-96
2022/06/30 10:14:03;;;;;;;;;;;29.90;57.20;;;;;;4975863;28;20515;-95
2022/06/30 10:16:29;;;;;;;;;;;30.00;57.90;;;;;;4976028;28;19973;-95
2022/06/30 10:18:54;;;;;;;;;;;30.20;57.40;;;;;;4958723;28;19944;-95
2022/06/30 10:21:21;;;;;;;;;;;30.30;55.50;;;;;;4976506;28;19976;-95
2022/06/30 10:23:47;;;;;;;;;;;30.40;54.30;;;;;;4976228;28;19942;-96
2022/06/30 10:27:12;;;;;;;;;;;30.50;53.50;;;;;;4976415;28;19965;-95
2022/06/30 10:28:58;;;;;;;;;;;30.60;53.40;;;;;;4975856;28;19958;-95
2022/06/30 10:31:29;;;;;;;;;;;30.70;55.00;;;;;;4976146;28;19945;-95
2022/06/30 10:34:01;;;;;;;;;;;30.70;55.50;;;;;;4976525;28;19945;-95
2022/06/30 10:36:30;;;;;;;;;;;30.70;54.40;;;;;;4958497;28;19965;-96
2022/06/30 10:39:04;;;;;;;;;;;30.70;54.40;;;;;;4976146;28;19946;-96
2022/06/30 10:41:30;;;;;;;;;;;30.80;54.80;;;;;;4975857;28;19944;-95
2022/06/30 10:44:04;;;;;;;;;;;30.60;52.50;;;;;;4976116;28;20384;-96
2022/06/30 10:46:30;;;;;;;;;;;30.70;55.10;;;;;;4975739;28;20036;-95
2022/06/30 10:48:56;;;;;;;;;;;30.70;53.10;;;;;;4975885;28;19982;-94
2022/06/30 10:51:22;;;;;;;;;;;30.80;53.30;;;;;;4975679;28;20070;-95
2022/06/30 10:53:50;;;;;;;;;;;30.70;52.50;;;;;;4975920;28;19945;-95
2022/06/30 10:56:15;;;;;;;;;;;30.40;54.40;;;;;;4975332;28;19968;-95
2022/06/30 10:59:00;;;;;;;;;;;30.60;53.10;;;;;;4974930;28;19980;-96
2022/06/30 11:01:25;;;;;;;;;;;30.70;53.50;;;;;;4974712;28;20369;-94
2022/06/30 11:03:51;;;;;;;;;;;30.90;55.20;;;;;;4974942;28;19977;-96
2022/06/30 11:06:16;;;;;;;;;;;31.10;52.70;;;;;;4974069;28;20048;-95
2022/06/30 11:08:48;;;;;;;;;;;31.10;51.40;;;;;;4974730;28;19992;-95
2022/06/30 11:11:19;;;;;;;;;;;31.10;51.40;;;;;;4957244;28;19944;-95
2022/06/30 11:13:46;;;;;;;;;;;31.30;51.60;;;;;;4957229;28;19942;-95
2022/06/30 11:16:15;;;;;;;;;;;31.50;50.30;;;;;;4975021;28;19969;-95
2022/06/30 11:18:41;;;;;;;;;;;31.70;51.60;;;;;;4974821;28;19939;-96
2022/06/30 11:21:06;;;;;;;;;;;31.90;49.70;;;;;;4956816;28;19950;-95
2022/06/30 11:23:39;;;;;;;;;;;32.10;50.90;;;;;;4974719;28;19946;-96
2022/06/30 11:28:50;;;;;;;;;;;31.80;48.50;;;;;;4974189;28;19988;-95
2022/06/30 11:31:25;;;;;;;;;;;32.00;49.00;;;;;;4957006;28;19951;-95
2022/06/30 11:33:51;;;;;;;;;;;32.00;48.30;;;;;;4956785;28;19943;-95
2022/06/30 11:36:17;;;;;;;;;;;32.20;50.30;;;;;;4974135;28;20019;-96
2022/06/30 11:38:43;;;;;;;;;;;32.20;50.00;;;;;;4974206;28;20025;-95
2022/06/30 11:44:06;;;;;;;;;;;32.50;47.10;;;;;;4950183;28;19957;-94
2022/06/30 11:46:32;;;;;;;;;;;32.20;47.70;;;;;;4993756;28;19944;-95
2022/06/30 11:48:58;;;;;;;;;;;32.20;47.60;;;;;;4994046;28;19944;-95
2022/06/30 11:51:24;;;;;;;;;;;32.40;47.00;;;;;;4975707;28;19950;-94
2022/06/30 11:53:51;;;;;;;;;;;32.50;47.30;;;;;;4993489;28;19991;-95
2022/06/30 11:56:16;;;;;;;;;;;32.90;47.80;;;;;;4993319;28;19962;-93
2022/06/30 11:58:42;;;;;;;;;;;32.80;45.80;;;;;;4929551;28;1846984;-95
2022/06/30 12:01:11;;;;;;;;;;;33.10;47.90;;;;;;4994666;28;20015;-95
2022/06/30 12:03:37;;;;;;;;;;;33.30;45.70;;;;;;4994213;28;19988;-96
2022/06/30 12:06:04;;;;;;;;;;;33.60;45.50;;;;;;4994209;28;19943;-94
2022/06/30 12:08:30;;;;;;;;;;;33.50;44.10;;;;;;4977668;28;19952;-95
2022/06/30 12:10:56;;;;;;;;;;;33.90;46.00;;;;;;4994265;28;19984;-96
2022/06/30 12:13:24;;;;;;;;;;;34.20;45.00;;;;;;4994294;28;19942;-96
2022/06/30 12:15:51;;;;;;;;;;;34.50;43.30;;;;;;4994112;28;19961;-95
2022/06/30 12:18:21;;;;;;;;;;;34.80;42.10;;;;;;4995126;28;19939;-95
2022/06/30 12:20:47;;;;;;;;;;;34.80;41.30;;;;;;4998132;28;20056;-95
2022/06/30 12:23:13;;;;;;;;;;;35.00;42.40;;;;;;4997955;28;20427;-96
2022/06/30 12:25:38;;;;;;;;;;;35.20;41.10;;;;;;4997536;28;20330;-96
2022/06/30 12:28:04;;;;;;;;;;;35.00;39.90;;;;;;4997579;28;19944;-95
2022/06/30 12:30:35;;;;;;;;;;;34.50;39.80;;;;;;4997360;28;19947;-95
2022/06/30 12:33:09;;;;;;;;;;;34.80;39.90;;;;;;4980045;28;19933;-94
2022/06/30 12:35:35;;;;;;;;;;;35.10;40.70;;;;;;4979318;28;19943;-94
2022/06/30 12:38:11;;;;;;;;;;;34.90;41.80;;;;;;4980065;28;20032;-95
2022/06/30 12:40:37;;;;;;;;;;;34.40;42.30;;;;;;4997752;28;19974;-94
2022/06/30 12:43:03;;;;;;;;;;;34.80;41.30;;;;;;4979806;28;19951;-95
2022/06/30 12:45:50;;;;;;;;;;;35.30;39.50;;;;;;4997912;28;19943;-94
2022/06/30 12:48:34;;;;;;;;;;;35.40;39.30;;;;;;4997397;28;19939;-95
2022/06/30 12:51:00;;;;;;;;;;;35.10;40.00;;;;;;4979746;28;19944;-95
2022/06/30 12:53:25;;;;;;;;;;;34.80;42.60;;;;;;4979810;28;19995;-96
2022/06/30 12:55:55;;;;;;;;;;;35.00;42.50;;;;;;4996844;28;20448;-95
2022/06/30 12:58:20;;;;;;;;;;;35.40;42.50;;;;;;4975872;28;19974;-96
2022/06/30 13:00:46;;;;;;;;;;;35.70;40.60;;;;;;4994388;28;20284;-95
2022/06/30 13:03:13;;;;;;;;;;;36.40;41.20;;;;;;4995742;28;19949;-96
2022/06/30 13:05:39;;;;;;;;;;;36.50;38.50;;;;;;4997022;28;19944;-95
2022/06/30 13:08:04;;;;;;;;;;;36.60;40.20;;;;;;4995105;28;20323;-95
2022/06/30 13:13:15;;;;;;;;;;;37.20;38.20;;;;;;4996675;28;19943;-95
2022/06/30 13:15:41;;;;;;;;;;;38.20;36.50;;;;;;4979079;28;20467;-96
2022/06/30 13:18:06;;;;;;;;;;;38.80;35.20;;;;;;4996921;28;19938;-95
2022/06/30 13:20:32;;;;;;;;;;;39.40;34.80;;;;;;4996698;28;20389;-96
2022/06/30 13:22:57;;;;;;;;;;;39.00;35.50;;;;;;4996533;28;19945;-95
2022/06/30 13:25:23;;;;;;;;;;;38.30;37.40;;;;;;4979360;28;19956;-95
2022/06/30 13:27:48;;;;;;;;;;;37.40;37.90;;;;;;4996440;28;19952;-95
2022/06/30 13:30:14;;;;;;;;;;;36.80;40.10;;;;;;4977971;28;19993;-96
2022/06/30 13:32:39;;;;;;;;;;;36.10;40.20;;;;;;4996307;28;19942;-95
2022/06/30 13:35:05;;;;;;;;;;;35.70;41.70;;;;;;4996033;28;19949;-95
2022/06/30 13:37:30;;;;;;;;;;;35.60;42.50;;;;;;4996054;28;19958;-96
2022/06/30 13:39:56;;;;;;;;;;;35.60;42.30;;;;;;4996209;28;19940;-95
2022/06/30 13:42:22;;;;;;;;;;;35.70;42.50;;;;;;4996394;28;19941;-95
2022/06/30 13:44:47;;;;;;;;;;;36.90;40.60;;;;;;4996231;28;19940;-95
2022/06/30 13:47:13;;;;;;;;;;;38.30;38.00;;;;;;4996238;28;20025;-95
2022/06/30 13:49:40;;;;;;;;;;;39.60;36.40;;;;;;4978666;28;19989;-96
2022/06/30 13:52:06;;;;;;;;;;;40.50;34.50;;;;;;4978719;28;20009;-95
2022/06/30 13:54:31;;;;;;;;;;;40.90;33.30;;;;;;4996537;28;19941;-95
2022/06/30 13:56:57;;;;;;;;;;;41.10;34.10;;;;;;4995904;28;20052;-96
2022/06/30 13:59:28;;;;;;;;;;;41.40;33.80;;;;;;4995106;28;19981;-96
2022/06/30 14:01:54;;;;;;;;;;;41.40;33.00;;;;;;4995734;28;19941;-96
2022/06/30 14:04:19;;;;;;;;;;;41.20;32.90;;;;;;4995459;28;19943;-95
2022/06/30 14:06:46;;;;;;;;;;;41.10;33.50;;;;;;4977664;28;19944;-95
2022/06/30 14:09:11;;;;;;;;;;;40.90;34.30;;;;;;4995665;28;20432;-95
2022/06/30 14:11:37;;;;;;;;;;;39.60;35.30;;;;;;4996123;28;19943;-95
2022/06/30 14:14:02;;;;;;;;;;;39.50;35.20;;;;;;4995864;28;19948;-96
2022/06/30 14:16:28;;;;;;;;;;;39.70;36.50;;;;;;4995499;28;19965;-96
2022/06/30 14:18:55;;;;;;;;;;;40.10;34.90;;;;;;4995777;28;19942;-95
2022/06/30 14:21:20;;;;;;;;;;;40.00;35.50;;;;;;4995482;28;19951;-95
2022/06/30 14:23:46;;;;;;;;;;;39.90;35.90;;;;;;4995505;28;19935;-96
2022/06/30 14:26:12;;;;;;;;;;;40.30;34.70;;;;;;4995549;28;20051;-95
2022/06/30 14:28:39;;;;;;;;;;;40.70;34.20;;;;;;4995730;28;19946;-95
2022/06/30 14:31:04;;;;;;;;;;;40.70;34.80;;;;;;4995155;28;20357;-95
2022/06/30 14:33:30;;;;;;;;;;;40.40;34.70;;;;;;4995346;28;19973;-95
2022/06/30 14:35:55;;;;;;;;;;;40.80;34.40;;;;;;4995455;28;19957;-95
2022/06/30 14:38:21;;;;;;;;;;;41.30;34.20;;;;;;4995254;28;19947;-95
2022/06/30 14:40:46;;;;;;;;;;;41.30;33.40;;;;;;4994952;28;19969;-95
2022/06/30 14:43:13;;;;;;;;;;;40.90;34.60;;;;;;4995442;28;19955;-95
2022/06/30 14:45:38;;;;;;;;;;;40.60;34.50;;;;;;4977704;28;19945;-96
2022/06/30 14:48:04;;;;;;;;;;;40.10;34.20;;;;;;4994424;28;19947;-95
2022/06/30 14:50:30;;;;;;;;;;;40.10;35.10;;;;;;4995018;28;20446;-95
2022/06/30 14:52:56;;;;;;;;;;;39.60;35.40;;;;;;4994924;28;19941;-95
2022/06/30 14:55:22;;;;;;;;;;;39.60;35.30;;;;;;4977336;28;19999;-96
2022/06/30 14:57:48;;;;;;;;;;;40.00;34.80;;;;;;4994869;28;20116;-95
2022/06/30 15:00:15;;;;;;;;;;;40.40;34.90;;;;;;4994803;28;19937;-95
2022/06/30 15:02:43;;;;;;;;;;;39.80;33.30;;;;;;4994979;28;19942;-95
2022/06/30 15:05:09;;;;;;;;;;;39.70;35.20;;;;;;4995470;28;19942;-95
2022/06/30 15:07:35;;;;;;;;;;;39.90;35.30;;;;;;4994690;28;19943;-96
2022/06/30 15:10:01;;;;;;;;;;;39.80;33.10;;;;;;4994137;28;19944;-95
2022/06/30 15:12:26;;;;;;;;;;;39.20;34.50;;;;;;4994715;28;19938;-95
2022/06/30 15:14:52;;;;;;;;;;;39.10;33.70;;;;;;4994415;28;20033;-95
2022/06/30 15:17:18;;;;;;;;;;;39.40;34.10;;;;;;4976489;28;19968;-95
2022/06/30 15:19:44;;;;;;;;;;;40.40;32.10;;;;;;4994502;28;19992;-95
2022/06/30 15:24:54;;;;;;;;;;;40.30;33.40;;;;;;4993765;28;19947;-94
2022/06/30 15:27:19;;;;;;;;;;;39.30;34.60;;;;;;4994391;28;20299;-94
2022/06/30 15:29:47;;;;;;;;;;;37.80;38.40;;;;;;4994613;28;19941;-94
2022/06/30 15:32:17;;;;;;;;;;;36.80;39.80;;;;;;4994234;28;20091;-94
2022/06/30 15:34:43;;;;;;;;;;;36.10;42.30;;;;;;4994600;28;19947;-95
2022/06/30 15:37:08;;;;;;;;;;;35.50;44.10;;;;;;4994427;28;20067;-94
2022/06/30 15:39:34;;;;;;;;;;;35.30;43.30;;;;;;4994390;28;19953;-95
2022/06/30 15:41:59;;;;;;;;;;;35.30;44.10;;;;;;4994461;28;20291;-94
2022/06/30 15:44:25;;;;;;;;;;;35.10;45.10;;;;;;4994203;28;19943;-95
2022/06/30 15:46:51;;;;;;;;;;;35.00;45.90;;;;;;4994286;28;19941;-95
2022/06/30 15:49:16;;;;;;;;;;;35.30;45.40;;;;;;4994354;28;19945;-95
2022/06/30 15:51:42;;;;;;;;;;;35.70;45.20;;;;;;4992688;28;19950;-96
2022/06/30 15:54:08;;;;;;;;;;;35.90;44.70;;;;;;4994862;28;19998;-95
2022/06/30 15:56:36;;;;;;;;;;;35.80;45.40;;;;;;4991470;28;19973;-95
2022/06/30 15:59:02;;;;;;;;;;;35.30;45.00;;;;;;4997330;28;20031;-95
2022/06/30 16:01:28;;;;;;;;;;;35.10;46.70;;;;;;4979522;28;20434;-94
2022/06/30 16:03:54;;;;;;;;;;;35.10;46.50;;;;;;4997702;28;20000;-94
2022/06/30 16:06:21;;;;;;;;;;;35.30;46.30;;;;;;4997918;28;20355;-95
2022/06/30 16:08:46;;;;;;;;;;;35.10;46.30;;;;;;4997675;28;19947;-95